»·PEaware :: N320CM KBUR-KLAS

N320CM :: KBUR-KLAS

FLIGHT INFORMATION

Flight Status: Arrived
Operator: Privately registered:
United States
More flights under this callsign
Pilot: Chris M. (19408)
Aircraft: Unknown
(DA62)
More flights by this aircraft type
Origin: KBUR Bob Hope-Burbank
United States
Destination: KLAS McCarran Intl
United States
More flights between these airports :: More routes between these airports
Route: +VNY3 VNY DAG CRESO CRESO4
File this flight plan on PilotEdge
Remarks: IFR I-5 Attempt
Altitude:
(Current/Filed)
16,000ft
Speed:
(Current/Filed)
155kts
Departed: 08-Feb-19 09:30 AM
Arrived: 08-Feb-19 10:44 AM
Distance/Time
Traveled:
194nm/1:14
Distance/Time
To Go:
Arrived

Flight Plot

Page will automatically refresh every two minutes.

Flight plan parsing failed; only flown route is shown


Map Options




Map Legend


Flown Route
Filed Route
Departure Airport
Arrival Airport
Navaid (VOR, NDB)
Fix

Horizontal Profiles

Position Reports

Time Latitude Longitude Heading Altitude Ground
Speed
08-Feb-19 09:06 34.200203 -118.358746 263 721ft 0kts
08-Feb-19 09:07 34.200203 -118.358746 263 721ft 0kts
08-Feb-19 09:08 34.200203 -118.358746 263 721ft 0kts
08-Feb-19 09:09 34.200203 -118.358746 263 721ft 0kts
08-Feb-19 09:10 34.200203 -118.358746 263 721ft 0kts
08-Feb-19 09:12 34.200203 -118.358746 263 721ft 0kts
08-Feb-19 09:13 34.200203 -118.358746 263 721ft 0kts
08-Feb-19 09:14 34.200203 -118.358746 263 721ft 0kts
08-Feb-19 09:15 34.200203 -118.358746 263 721ft 0kts
08-Feb-19 09:16 34.200203 -118.358746 263 721ft 0kts
08-Feb-19 09:17 34.200203 -118.358746 263 721ft 0kts
08-Feb-19 09:18 34.200203 -118.358746 263 721ft 0kts
08-Feb-19 09:19 34.200203 -118.358746 263 721ft 0kts
08-Feb-19 09:20 34.200203 -118.358746 263 721ft 0kts
08-Feb-19 09:21 34.200203 -118.358746 263 721ft 0kts
08-Feb-19 09:22 34.200203 -118.358746 263 721ft 0kts
08-Feb-19 09:23 34.200203 -118.358746 263 721ft 0kts
08-Feb-19 09:24 34.200243 -118.358933 300 721ft 4kts
08-Feb-19 09:25 34.201858 -118.358732 347 727ft 14kts
08-Feb-19 09:26 34.206328 -118.359966 347 743ft 17kts
08-Feb-19 09:27 34.210918 -118.361249 348 767ft 16kts
08-Feb-19 09:28 34.211600 -118.361261 34 767ft 0kts
08-Feb-19 09:29 34.211805 -118.360334 152 766ft 11kts
08-Feb-19 09:30 34.189436 -118.355957 202 1477ft 109kts
08-Feb-19 09:30 34.169923 -118.377354 224 2497ft 118kts
08-Feb-19 09:32 34.141155 -118.410247 225 3901ft 126kts
08-Feb-19 09:33 34.156228 -118.438700 346 4810ft 126kts
08-Feb-19 09:33 34.183769 -118.445660 346 5799ft 117kts
08-Feb-19 09:34 34.213482 -118.451185 350 6966ft 100kts
08-Feb-19 09:36 34.243086 -118.450423 351 8310ft 84kts
08-Feb-19 09:36 34.261798 -118.447657 350 9280ft 82kts
08-Feb-19 09:37 34.283531 -118.446223 331 10448ft 76kts
08-Feb-19 09:38 34.304783 -118.449377 328 11551ft 81kts
08-Feb-19 09:39 34.330806 -118.453639 334 12425ft 121kts
08-Feb-19 09:40 34.366092 -118.458367 335 13575ft 128kts
08-Feb-19 09:41 34.402421 -118.430106 48 14005ft 206kts
08-Feb-19 09:42 34.439284 -118.371293 50 13998ft 226kts
08-Feb-19 09:43 34.477605 -118.310182 50 14134ft 223kts
08-Feb-19 09:44 34.514618 -118.251111 49 14607ft 216kts
08-Feb-19 09:45 34.551157 -118.192722 49 14979ft 222kts
08-Feb-19 09:46 34.589606 -118.131176 49 14981ft 233kts
08-Feb-19 09:47 34.628280 -118.067059 69 14959ft 237kts
08-Feb-19 09:48 34.639751 -117.988936 86 14982ft 234kts
08-Feb-19 09:49 34.648466 -117.910363 86 14982ft 234kts
08-Feb-19 09:50 34.657015 -117.831664 86 14983ft 234kts
08-Feb-19 09:51 34.667357 -117.753092 75 14985ft 236kts
08-Feb-19 09:52 34.686773 -117.676405 73 14984ft 237kts
08-Feb-19 09:53 34.706443 -117.599622 73 14985ft 237kts
08-Feb-19 09:54 34.726061 -117.522863 73 14986ft 237kts
08-Feb-19 09:55 34.745542 -117.446053 74 15000ft 237kts
08-Feb-19 09:56 34.765054 -117.369123 74 15006ft 237kts
08-Feb-19 09:57 34.784217 -117.292059 74 14998ft 236kts
08-Feb-19 09:58 34.803769 -117.215501 74 14980ft 237kts
08-Feb-19 09:59 34.823125 -117.138692 74 14963ft 236kts
08-Feb-19 10:00 34.842386 -117.061903 74 14964ft 236kts
08-Feb-19 10:01 34.861565 -116.985285 72 14964ft 236kts
08-Feb-19 10:02 34.880713 -116.908596 71 14965ft 235kts
08-Feb-19 10:03 34.899821 -116.832009 72 14966ft 236kts
08-Feb-19 10:04 34.918859 -116.755347 72 14971ft 236kts
08-Feb-19 10:05 34.937911 -116.678353 72 14980ft 237kts
08-Feb-19 10:06 34.957043 -116.600794 73 14992ft 238kts
08-Feb-19 10:07 34.985096 -116.527707 59 15005ft 239kts
08-Feb-19 10:08 35.017098 -116.455715 60 15014ft 241kts
08-Feb-19 10:09 35.049158 -116.383418 60 15018ft 243kts
08-Feb-19 10:10 35.081423 -116.310502 61 15019ft 242kts
08-Feb-19 10:11 35.113610 -116.237599 61 15013ft 241kts
08-Feb-19 10:12 35.145521 -116.165185 61 15014ft 241kts
08-Feb-19 10:13 35.177292 -116.092941 61 15015ft 241kts
08-Feb-19 10:14 35.209031 -116.020625 61 15016ft 241kts
08-Feb-19 10:15 35.240771 -115.948145 61 15017ft 241kts
08-Feb-19 10:16 35.272594 -115.875317 61 15018ft 241kts
08-Feb-19 10:17 35.304328 -115.802546 61 14894ft 248kts
08-Feb-19 10:18 35.347504 -115.738226 43 13866ft 237kts
08-Feb-19 10:19 35.391341 -115.679838 43 12773ft 228kts
08-Feb-19 10:20 35.433448 -115.623537 43 11607ft 221kts
08-Feb-19 10:21 35.474146 -115.569045 41 10419ft 210kts
08-Feb-19 10:22 35.510829 -115.519846 39 9785ft 183kts
08-Feb-19 10:23 35.545548 -115.473449 39 8720ft 183kts
08-Feb-19 10:24 35.579423 -115.428004 39 7636ft 176kts
08-Feb-19 10:25 35.611384 -115.384992 39 7000ft 159kts
08-Feb-19 10:26 35.641021 -115.345040 39 6998ft 157kts
08-Feb-19 10:27 35.670402 -115.305512 39 6997ft 155kts
08-Feb-19 10:28 35.699505 -115.266133 40 6998ft 155kts
08-Feb-19 10:29 35.728695 -115.226708 39 6998ft 155kts
08-Feb-19 10:30 35.757899 -115.187217 40 6998ft 155kts
08-Feb-19 10:31 35.789939 -115.153731 21 6999ft 149kts
08-Feb-19 10:32 35.826495 -115.129172 21 6998ft 149kts
08-Feb-19 10:33 35.862941 -115.104975 21 6998ft 149kts
08-Feb-19 10:34 35.899935 -115.082215 3 7002ft 143kts
08-Feb-19 10:35 35.939486 -115.075671 1 6998ft 143kts
08-Feb-19 10:36 35.977824 -115.075194 316 7004ft 133kts
08-Feb-19 10:37 36.006226 -115.106737 338 6259ft 142kts
08-Feb-19 10:38 36.042218 -115.119683 341 5225ft 128kts
08-Feb-19 10:39 36.075985 -115.108960 17 4192ft 127kts
08-Feb-19 10:40 36.108698 -115.092676 1 3181ft 126kts
08-Feb-19 10:41 36.123931 -115.116438 271 3094ft 85kts
08-Feb-19 10:42 36.112953 -115.145894 225 2423ft 98kts
08-Feb-19 10:43 36.093484 -115.159957 208 2106ft 29kts
08-Feb-19 10:44 36.089364 -115.163413 295 2128ft 0kts
08-Feb-19 10:45 36.089364 -115.163413 295 2128ft 0kts
08-Feb-19 10:46 36.089710 -115.164275 321 2131ft 12kts
08-Feb-19 10:47 36.096162 -115.160856 25 2101ft 33kts
08-Feb-19 10:48 36.099496 -115.162245 333 2103ft 13kts

Navigation Log

Ident Type
Flight plan parsing failed, navigation log unavailable